createdAt,value
2022-11-02T00:01:34.892Z,97185.63
2022-11-02T00:04:02.717Z,97201.78
2022-11-02T00:06:30.392Z,97198.72
2022-11-02T00:08:58.110Z,97197.75
2022-11-02T00:11:25.837Z,97199.78
2022-11-02T00:13:54.940Z,97207.56
2022-11-02T00:16:25.460Z,97203.50
2022-11-02T00:18:56.105Z,97200.19
2022-11-02T00:21:26.955Z,97188.31
2022-11-02T00:23:56.109Z,97194.72
2022-11-02T00:26:23.905Z,97193.69
2022-11-02T00:28:51.685Z,97201.09
2022-11-02T00:31:20.731Z,97197.41
2022-11-02T00:33:48.536Z,97199.78
2022-11-02T00:36:17.275Z,97194.66
2022-11-02T00:38:45.104Z,97196.69
2022-11-02T00:41:13.254Z,97203.84
2022-11-02T00:43:41.025Z,97208.06
2022-11-02T00:46:08.713Z,97195.88
2022-11-02T00:48:37.804Z,97201.25
2022-11-02T00:51:05.966Z,97202.25
2022-11-02T00:53:33.701Z,97205.66
2022-11-02T00:56:01.440Z,97208.47
2022-11-02T00:58:29.345Z,97205.16
2022-11-02T01:00:57.764Z,97202.16
2022-11-02T01:03:25.623Z,97213.91
2022-11-02T01:05:54.703Z,97214.13
2022-11-02T01:08:22.692Z,97216.00
2022-11-02T01:10:50.549Z,97212.69
2022-11-02T01:13:18.319Z,97213.13
2022-11-02T01:15:46.050Z,97208.94
2022-11-02T01:18:13.737Z,97216.50
2022-11-02T01:20:41.475Z,97204.75
2022-11-02T01:23:10.537Z,97217.91
2022-11-02T01:25:38.235Z,97219.56
2022-11-02T01:28:06.659Z,97224.84
2022-11-02T01:30:34.547Z,97219.47
2022-11-02T01:33:02.321Z,97219.06
2022-11-02T01:35:30.181Z,97225.25
2022-11-02T01:37:57.862Z,97221.88
2022-11-02T01:40:26.978Z,97213.69
2022-11-02T01:42:54.674Z,97212.06
2022-11-02T01:45:22.328Z,97212.84
2022-11-02T01:47:50.138Z,97216.97
2022-11-02T01:50:22.672Z,97212.84
2022-11-02T01:52:50.646Z,97210.16
2022-11-02T01:55:21.519Z,97212.66
2022-11-02T01:58:09.752Z,97205.00
2022-11-02T02:00:39.151Z,97200.88
2022-11-02T02:03:09.957Z,97199.59
2022-11-02T02:05:43.363Z,97203.75
2022-11-02T02:08:14.058Z,97197.97
2022-11-02T02:10:41.782Z,97197.69
2022-11-02T02:13:11.683Z,97202.81
2022-11-02T02:15:43.122Z,97202.75
2022-11-02T02:18:17.732Z,97198.41
2022-11-02T02:21:01.117Z,97212.88
2022-11-02T02:23:59.889Z,97208.69
2022-11-02T02:26:59.213Z,97201.25
2022-11-02T02:29:38.564Z,97200.66
2022-11-02T02:32:13.115Z,97201.63
2022-11-02T02:34:50.519Z,97198.13
2022-11-02T02:37:23.015Z,97199.03
2022-11-02T02:39:57.856Z,97192.47
2022-11-02T02:42:31.355Z,97189.16
2022-11-02T02:45:11.354Z,97186.38
2022-11-02T02:47:45.540Z,97185.34
2022-11-02T02:50:19.024Z,97181.69
2022-11-02T02:52:50.885Z,97176.03
2022-11-02T02:55:23.267Z,97182.06
2022-11-02T02:57:55.586Z,97182.53
2022-11-02T03:00:24.940Z,97176.78
2022-11-02T03:03:01.890Z,97182.13
2022-11-02T03:05:33.832Z,97172.69
2022-11-02T03:08:07.021Z,97174.31
2022-11-02T03:10:43.583Z,97170.28
2022-11-02T03:13:21.860Z,97176.38
2022-11-02T03:15:55.785Z,97171.47
2022-11-02T03:18:31.649Z,97170.44
2022-11-02T03:21:08.673Z,97165.66
2022-11-02T03:23:40.473Z,97167.75
2022-11-02T03:26:14.983Z,97165.94
2022-11-02T03:28:53.518Z,97170.50
2022-11-02T03:31:32.345Z,97166.34
2022-11-02T03:34:09.611Z,97157.72
2022-11-02T03:36:46.177Z,97143.13
2022-11-02T03:39:16.294Z,97159.16
2022-11-02T03:41:47.154Z,97158.59
2022-11-02T03:44:21.467Z,97172.25
2022-11-02T03:46:55.075Z,97170.69
2022-11-02T03:49:25.009Z,97174.38
2022-11-02T03:51:53.914Z,97174.31
2022-11-02T03:54:31.899Z,97176.63
2022-11-02T03:59:32.962Z,97171.03
2022-11-02T04:02:03.466Z,97175.75
2022-11-02T04:04:31.400Z,97194.78
2022-11-02T04:06:59.232Z,97190.78
2022-11-02T04:09:26.961Z,97191.97
2022-11-02T04:12:11.919Z,97188.56
2022-11-02T04:14:39.934Z,97202.91
2022-11-02T04:19:59.103Z,97201.81
2022-11-02T04:22:44.575Z,97195.94
2022-11-02T04:25:18.805Z,97200.53
2022-11-02T04:27:48.472Z,97201.13
2022-11-02T04:30:17.908Z,97199.88
2022-11-02T04:33:06.217Z,97195.09
2022-11-02T04:35:34.877Z,97204.38
2022-11-02T04:38:20.715Z,97200.13
2022-11-02T04:40:48.714Z,97207.44
2022-11-02T04:43:16.414Z,97222.72
2022-11-02T04:45:44.132Z,97232.66
2022-11-02T04:48:13.230Z,97228.66
2022-11-02T04:50:40.954Z,97235.66
2022-11-02T04:53:08.775Z,97228.59
2022-11-02T04:55:36.483Z,97234.03
2022-11-02T04:58:04.646Z,97232.81
2022-11-02T05:00:32.650Z,97200.47
2022-11-02T05:03:00.360Z,97236.31
2022-11-02T05:05:29.471Z,97233.69
2022-11-02T05:07:57.208Z,97236.84
2022-11-02T05:10:24.974Z,97238.63
2022-11-02T05:12:58.505Z,97226.13
2022-11-02T05:15:26.279Z,97235.50
2022-11-02T05:17:54.212Z,97227.03
2022-11-02T05:20:22.289Z,97232.59
2022-11-02T05:22:51.388Z,97241.47
2022-11-02T05:25:19.177Z,97232.06
2022-11-02T05:27:47.010Z,97250.38
2022-11-02T05:30:14.747Z,97250.53
2022-11-02T05:32:42.642Z,97249.09
2022-11-02T05:35:10.815Z,97244.44
2022-11-02T05:37:38.597Z,97262.44
2022-11-02T05:40:09.352Z,97251.31
2022-11-02T05:42:37.102Z,97254.56
2022-11-02T05:45:05.400Z,97237.28
2022-11-02T05:47:34.614Z,97242.66
2022-11-02T05:50:02.997Z,97247.13
2022-11-02T05:52:30.956Z,97224.72
2022-11-02T05:54:58.689Z,97265.66
2022-11-02T05:57:27.912Z,97270.22
2022-11-02T05:59:55.683Z,97265.88
2022-11-02T06:02:25.526Z,97261.94
2022-11-02T06:04:53.520Z,97267.69
2022-11-02T06:07:21.347Z,97273.44
2022-11-02T06:09:49.148Z,97263.50
2022-11-02T06:12:16.937Z,97230.59
2022-11-02T06:14:46.057Z,97281.38
2022-11-02T06:17:13.780Z,97280.59
2022-11-02T06:19:41.512Z,97291.47
2022-11-02T06:22:09.300Z,97289.06
2022-11-02T06:24:37.029Z,97293.94
2022-11-02T06:27:04.850Z,97292.72
2022-11-02T06:29:32.605Z,97305.25
2022-11-02T06:32:01.721Z,97299.88
2022-11-02T06:34:29.612Z,97304.19
2022-11-02T06:36:57.419Z,97309.94
2022-11-02T06:39:25.241Z,97313.22
2022-11-02T06:41:53.047Z,97313.44
2022-11-02T06:44:20.767Z,97298.31
2022-11-02T06:46:48.513Z,97325.94
2022-11-02T06:49:17.656Z,97319.53
2022-11-02T06:51:45.413Z,97329.06
2022-11-02T06:54:13.695Z,97328.31
2022-11-02T06:56:41.473Z,97334.53
2022-11-02T06:59:09.227Z,97321.41
2022-11-02T07:01:37.221Z,97337.44
2022-11-02T07:04:05.365Z,97342.28
2022-11-02T07:06:34.566Z,97333.69
2022-11-02T07:09:02.331Z,97353.97
2022-11-02T07:11:30.049Z,97358.31
2022-11-02T07:13:58.047Z,97347.56
2022-11-02T07:16:26.323Z,97362.34
2022-11-02T07:18:54.064Z,97371.44
2022-11-02T07:21:21.841Z,97356.66
2022-11-02T07:23:51.764Z,97375.59
2022-11-02T07:26:19.632Z,97388.72
2022-11-02T07:28:48.011Z,97386.94
2022-11-02T07:31:15.842Z,97382.00
2022-11-02T07:33:43.579Z,97371.44
2022-11-02T07:36:11.523Z,97380.69
2022-11-02T07:38:39.208Z,97379.19
2022-11-02T07:41:08.455Z,97380.59
2022-11-02T07:43:39.939Z,97382.69
2022-11-02T07:46:11.605Z,97380.38
2022-11-02T07:48:39.340Z,97368.72
2022-11-02T07:51:07.693Z,97369.88
2022-11-02T07:53:35.852Z,97370.81
2022-11-02T07:56:03.919Z,97361.63
2022-11-02T07:58:33.839Z,97373.63
2022-11-02T08:01:02.602Z,97369.91
2022-11-02T08:03:30.792Z,97372.03
2022-11-02T08:06:02.798Z,97370.94
2022-11-02T08:08:30.651Z,97377.97
2022-11-02T08:11:05.615Z,97368.63
2022-11-02T08:13:34.923Z,97366.03
2022-11-02T08:16:02.804Z,97366.94
2022-11-02T08:18:31.293Z,97372.22
2022-11-02T08:21:00.061Z,97374.66
2022-11-02T08:23:28.016Z,97363.56
2022-11-02T08:25:56.455Z,97372.13
2022-11-02T08:28:26.450Z,97369.03
2022-11-02T08:30:55.828Z,97375.34
2022-11-02T08:33:23.611Z,97372.59
2022-11-02T08:35:53.166Z,97376.47
2022-11-02T08:38:22.789Z,97391.19
2022-11-02T08:40:50.738Z,97375.19
2022-11-02T08:43:18.644Z,97389.28
2022-11-02T08:48:35.880Z,97396.47
2022-11-02T08:51:05.765Z,97385.78
2022-11-02T08:53:33.493Z,97390.34
2022-11-02T08:56:01.337Z,97384.06
2022-11-02T08:58:29.593Z,97389.81
2022-11-02T09:00:57.941Z,97383.50
2022-11-02T09:03:27.170Z,97392.88
2022-11-02T09:06:01.182Z,97389.72
2022-11-02T09:08:29.378Z,97385.66
2022-11-02T09:11:00.366Z,97383.81
2022-11-02T09:13:28.510Z,97385.88
2022-11-02T09:15:59.345Z,97393.28
2022-11-02T09:18:27.131Z,97385.91
2022-11-02T09:20:55.067Z,97386.16
2022-11-02T09:23:24.397Z,97373.63
2022-11-02T09:25:52.222Z,97384.09
2022-11-02T09:28:19.999Z,97383.13
2022-11-02T09:30:48.041Z,97372.97
2022-11-02T09:33:16.449Z,97379.84
2022-11-02T09:35:46.354Z,97371.41
2022-11-02T09:38:14.427Z,97389.31
2022-11-02T09:40:47.145Z,97383.81
2022-11-02T09:43:22.012Z,97383.44
2022-11-02T09:45:56.570Z,97378.44
2022-11-02T09:48:29.863Z,97388.97
2022-11-02T09:51:04.690Z,97391.47
2022-11-02T09:53:45.855Z,97387.63
2022-11-02T09:56:19.756Z,97390.78
2022-11-02T09:58:52.593Z,97398.91
2022-11-02T10:01:30.627Z,97391.22
2022-11-02T10:04:30.433Z,97395.81
2022-11-02T10:07:07.271Z,97398.75
2022-11-02T10:09:41.555Z,97401.47
2022-11-02T10:12:15.516Z,97394.53
2022-11-02T10:14:54.251Z,97394.19
2022-11-02T10:17:26.725Z,97388.53
2022-11-02T10:19:58.368Z,97392.09
2022-11-02T10:22:32.689Z,97380.69
2022-11-02T10:25:02.802Z,97383.94
2022-11-02T10:27:38.612Z,97370.47
2022-11-02T10:30:12.257Z,97368.97
2022-11-02T10:35:45.880Z,97370.84
2022-11-02T10:38:20.850Z,97375.22
2022-11-02T10:41:05.329Z,97374.69
2022-11-02T10:43:53.910Z,97365.88
2022-11-02T10:46:34.749Z,97364.81
2022-11-02T10:49:11.413Z,97368.88
2022-11-02T10:51:39.220Z,97358.56
2022-11-02T10:54:17.813Z,97363.22
2022-11-02T10:56:50.383Z,97361.84
2022-11-02T10:59:23.570Z,97347.81
2022-11-02T11:02:07.192Z,97347.25
2022-11-02T11:04:35.723Z,97347.69
2022-11-02T11:07:07.223Z,97339.72
2022-11-02T11:09:51.732Z,97332.53
2022-11-02T11:12:32.821Z,97326.84
2022-11-02T11:20:46.820Z,97326.09
2022-11-02T11:23:23.308Z,97305.00
2022-11-02T11:26:02.299Z,97310.44
2022-11-02T11:28:33.695Z,97302.19
2022-11-02T11:31:13.273Z,97312.63
2022-11-02T11:33:54.349Z,97303.88
2022-11-02T11:36:27.962Z,97303.88
2022-11-02T11:38:58.952Z,97291.88
2022-11-02T11:41:26.993Z,97289.59
2022-11-02T11:43:55.496Z,97283.59
2022-11-02T11:46:24.782Z,97284.84
2022-11-02T11:48:59.125Z,97279.94
2022-11-02T11:51:34.188Z,97291.00
2022-11-02T11:54:19.145Z,97279.88
2022-11-02T11:56:47.118Z,97277.34
2022-11-02T11:59:26.618Z,97277.66
2022-11-02T12:01:58.656Z,97286.91
2022-11-02T12:04:31.941Z,97281.69
2022-11-02T12:07:11.404Z,97274.97
2022-11-02T12:09:46.379Z,97279.13
2022-11-02T12:12:20.999Z,97278.59
2022-11-02T12:14:56.552Z,97265.19
2022-11-02T12:17:40.853Z,97266.44
2022-11-02T12:20:20.459Z,97266.25
2022-11-02T12:22:59.338Z,97255.06
2022-11-02T12:25:42.424Z,97239.31
2022-11-02T12:28:29.824Z,97253.84
2022-11-02T12:31:06.769Z,97249.16
2022-11-02T12:33:50.053Z,97226.84
2022-11-02T12:37:03.467Z,97245.84
2022-11-02T12:39:37.511Z,97248.13
2022-11-02T12:42:20.493Z,97237.94
2022-11-02T12:45:12.587Z,97234.44
2022-11-02T12:47:54.135Z,97211.22
2022-11-02T12:50:36.350Z,97234.28
2022-11-02T12:53:22.806Z,97234.75
2022-11-02T12:55:54.502Z,97218.66
2022-11-02T12:58:27.172Z,97220.31
2022-11-02T13:01:01.361Z,97219.88
2022-11-02T13:03:39.834Z,97212.00
2022-11-02T13:06:15.289Z,97215.63
2022-11-02T13:08:48.880Z,97210.38
2022-11-02T13:11:23.467Z,97206.38
2022-11-02T13:13:54.628Z,97207.66
2022-11-02T13:16:31.320Z,97214.16
2022-11-02T13:19:04.084Z,97211.53
2022-11-02T13:21:43.713Z,97201.44
2022-11-02T13:24:17.078Z,97203.22
2022-11-02T13:26:47.636Z,97199.41
2022-11-02T13:29:23.107Z,97193.56
2022-11-02T13:31:56.303Z,97185.56
2022-11-02T13:34:32.625Z,97187.03
2022-11-02T13:37:07.630Z,97193.78
2022-11-02T13:39:39.911Z,97191.41
2022-11-02T13:42:51.943Z,97189.38
2022-11-02T13:45:54.923Z,97186.38
2022-11-02T13:48:39.152Z,97185.28
2022-11-02T13:51:13.899Z,97177.53
2022-11-02T13:53:52.449Z,97181.88
2022-11-02T13:56:25.385Z,97177.59
2022-11-02T13:58:57.822Z,97187.13
2022-11-02T14:01:26.575Z,97178.38
2022-11-02T14:04:01.744Z,97185.22
2022-11-02T14:06:33.403Z,97183.75
2022-11-02T14:09:05.514Z,97178.91
2022-11-02T14:11:47.329Z,97175.66
2022-11-02T14:14:21.616Z,97168.69
2022-11-02T14:17:00.792Z,97180.22
2022-11-02T14:19:33.169Z,97164.59
2022-11-02T14:22:13.193Z,97172.19
2022-11-02T14:24:56.591Z,97169.19
2022-11-02T14:27:31.247Z,97163.41
2022-11-02T14:29:59.739Z,97166.00
2022-11-02T14:32:49.616Z,97162.50
2022-11-02T14:35:34.966Z,97157.28
2022-11-02T14:38:38.034Z,97164.28
2022-11-02T14:41:23.969Z,97161.91
2022-11-02T14:44:06.573Z,97166.22
2022-11-02T14:46:47.380Z,97145.44
2022-11-02T14:49:21.837Z,97157.91
2022-11-02T14:52:03.904Z,97158.03
2022-11-02T14:54:33.097Z,97147.16
2022-11-02T14:57:06.360Z,97144.47
2022-11-02T14:59:37.690Z,97149.72
2022-11-02T15:02:10.610Z,97146.81
2022-11-02T15:04:48.031Z,97137.22
2022-11-02T15:07:21.462Z,97137.28
2022-11-02T15:09:57.836Z,97132.75
2022-11-02T15:12:33.939Z,97113.59
2022-11-02T15:15:32.732Z,97129.81
2022-11-02T15:18:32.275Z,97133.31
2022-11-02T15:21:28.184Z,97128.84
2022-11-02T15:24:13.867Z,97128.25
2022-11-02T15:26:51.745Z,97122.06
2022-11-02T15:29:36.413Z,97129.84
2022-11-02T15:32:07.604Z,97127.97
2022-11-02T15:34:40.464Z,97127.47
2022-11-02T15:37:09.810Z,97115.06
2022-11-02T15:39:38.661Z,97113.78
2022-11-02T15:42:18.100Z,97103.69
2022-11-02T15:45:20.281Z,97113.69
2022-11-02T15:48:09.651Z,97118.78
2022-11-02T15:50:47.230Z,97119.03
2022-11-02T15:53:29.569Z,97113.97
2022-11-02T15:56:10.031Z,97107.56
2022-11-02T15:58:53.646Z,97104.97
2022-11-02T16:01:24.548Z,97096.31
2022-11-02T16:03:58.363Z,97102.06
2022-11-02T16:06:28.266Z,97088.53
2022-11-02T16:08:58.020Z,97100.88
2022-11-02T16:11:25.876Z,97093.50
2022-11-02T16:14:08.582Z,97097.81
2022-11-02T16:16:47.809Z,97089.22
2022-11-02T16:19:20.005Z,97090.94
2022-11-02T16:21:47.606Z,97086.78
2022-11-02T16:24:15.754Z,97092.13
2022-11-02T16:26:45.886Z,97092.88
2022-11-02T16:29:23.586Z,97095.84
2022-11-02T16:31:52.909Z,97097.38
2022-11-02T16:34:23.060Z,97092.97
2022-11-02T16:36:50.961Z,97090.97
2022-11-02T16:39:30.382Z,97096.16
2022-11-02T16:42:00.342Z,97088.81
2022-11-02T16:44:30.361Z,97085.66
2022-11-02T16:47:01.823Z,97088.81
2022-11-02T16:49:30.010Z,97080.44
2022-11-02T16:51:59.585Z,97069.41
2022-11-02T16:54:30.558Z,97086.88
2022-11-02T16:57:07.318Z,97089.19
2022-11-02T16:59:46.826Z,97088.72
2022-11-02T17:02:16.546Z,97087.72
2022-11-02T17:04:46.452Z,97087.06
2022-11-02T17:07:18.753Z,97077.44
2022-11-02T17:09:53.279Z,97081.84
2022-11-02T17:12:22.394Z,97088.03
2022-11-02T17:14:51.193Z,97086.34
2022-11-02T17:17:38.990Z,97086.19
2022-11-02T17:20:19.996Z,97066.78
2022-11-02T17:22:53.846Z,97081.50
2022-11-02T17:25:24.008Z,97083.13
2022-11-02T17:27:52.869Z,97086.00
2022-11-02T17:30:43.638Z,97093.28
2022-11-02T17:33:23.814Z,97083.28
2022-11-02T17:35:53.345Z,97087.84
2022-11-02T17:38:24.962Z,97085.59
2022-11-02T17:40:53.181Z,97078.25
2022-11-02T17:43:20.486Z,97079.44
2022-11-02T17:45:55.143Z,97072.09
2022-11-02T17:48:24.539Z,97073.53
2022-11-02T17:50:54.598Z,97069.03
2022-11-02T17:53:23.206Z,97067.03
2022-11-02T17:55:51.223Z,97071.13
2022-11-02T17:58:18.882Z,97068.69
2022-11-02T18:00:46.662Z,97065.22
2022-11-02T18:03:19.078Z,97053.88
2022-11-02T18:05:50.948Z,97068.28
2022-11-02T18:08:20.604Z,97058.22
2022-11-02T18:10:49.417Z,97056.81
2022-11-02T18:13:20.262Z,97055.59
2022-11-02T18:15:48.725Z,97033.88
2022-11-02T18:18:16.544Z,97031.66
2022-11-02T18:20:44.291Z,97041.09
2022-11-02T18:23:19.372Z,97022.03
2022-11-02T18:25:47.087Z,97041.50
2022-11-02T18:28:15.010Z,97042.34
2022-11-02T18:30:44.293Z,97038.03
2022-11-02T18:33:13.694Z,97045.50
2022-11-02T18:35:42.142Z,97042.22
2022-11-02T18:38:10.032Z,97041.00
2022-11-02T18:40:39.566Z,97041.00
2022-11-02T18:43:07.883Z,97037.75
2022-11-02T18:45:35.934Z,97036.75
2022-11-02T18:48:03.966Z,97023.66
2022-11-02T18:50:32.139Z,97030.03
2022-11-02T18:52:59.809Z,97012.41
2022-11-02T18:55:27.565Z,97029.19
2022-11-02T18:57:56.683Z,97004.53
2022-11-02T19:00:24.587Z,97004.50
2022-11-02T19:02:52.338Z,97012.88
2022-11-02T19:05:52.130Z,97008.19
2022-11-02T19:08:37.558Z,96994.03
2022-11-02T19:11:05.411Z,97014.50
2022-11-02T19:13:34.545Z,97016.53
2022-11-02T19:16:03.829Z,97023.53
2022-11-02T19:18:31.599Z,96998.38
2022-11-02T19:20:59.447Z,97017.00
2022-11-02T19:23:27.328Z,97016.53
2022-11-02T19:25:55.029Z,97002.78
2022-11-02T19:28:22.683Z,97007.72
2022-11-02T19:30:51.765Z,97006.06
2022-11-02T19:33:20.997Z,97003.63
2022-11-02T19:35:55.627Z,96996.88
2022-11-02T19:38:23.429Z,97007.34
2022-11-02T19:41:01.310Z,97002.81
2022-11-02T19:43:29.030Z,97013.09
2022-11-02T19:46:02.440Z,96925.50
2022-11-02T19:48:31.682Z,96995.47
2022-11-02T19:51:06.241Z,97011.53
2022-11-02T19:53:33.964Z,97012.34
2022-11-02T19:56:01.688Z,97012.34
2022-11-02T19:58:29.443Z,97011.56
2022-11-02T20:00:57.234Z,97010.50
2022-11-02T20:03:26.400Z,97019.75
2022-11-02T20:05:54.088Z,97015.69
2022-11-02T20:08:21.908Z,97017.28
2022-11-02T20:10:49.766Z,97019.94
2022-11-02T20:13:17.549Z,97016.06
2022-11-02T20:15:45.223Z,97013.19
2022-11-02T20:18:19.532Z,97013.16
2022-11-02T20:20:49.367Z,97013.16
2022-11-02T20:23:17.104Z,96996.78
2022-11-02T20:25:44.938Z,97003.34
2022-11-02T20:28:12.724Z,96993.13
2022-11-02T20:30:42.010Z,97002.97
2022-11-02T20:33:09.842Z,97002.97
2022-11-02T20:35:38.955Z,96993.53
2022-11-02T20:38:08.374Z,96999.66
2022-11-02T20:40:41.008Z,97000.09
2022-11-02T20:43:08.957Z,96993.53
2022-11-02T20:45:36.838Z,96992.94
2022-11-02T20:48:05.371Z,96992.69
2022-11-02T20:50:33.727Z,96993.34
2022-11-02T20:53:01.452Z,96996.00
2022-11-02T20:55:30.526Z,96987.81
2022-11-02T20:57:58.253Z,96993.13
2022-11-02T21:00:26.542Z,96991.06
2022-11-02T21:02:54.237Z,96986.19
2022-11-02T21:05:21.973Z,96982.53
2022-11-02T21:07:51.807Z,96986.84
2022-11-02T21:10:19.535Z,96979.69
2022-11-02T21:13:06.448Z,96970.28
2022-11-02T21:15:35.739Z,96980.97
2022-11-02T21:18:03.441Z,96974.78
2022-11-02T21:20:34.433Z,96978.25
2022-11-02T21:23:02.807Z,96980.13
2022-11-02T21:25:31.905Z,96970.72
2022-11-02T21:28:01.245Z,96982.03
2022-11-02T21:30:31.165Z,96979.34
2022-11-02T21:32:59.316Z,96982.81
2022-11-02T21:35:27.124Z,96968.03
2022-11-02T21:38:01.251Z,96993.16
2022-11-02T21:40:31.573Z,96971.53
2022-11-02T21:43:00.705Z,96916.63
2022-11-02T21:45:33.568Z,96984.38
2022-11-02T21:48:05.377Z,96983.78
2022-11-02T21:50:33.345Z,96980.97
2022-11-02T21:53:01.044Z,96983.22
2022-11-02T21:55:28.749Z,96968.06
2022-11-02T21:57:56.466Z,96969.09
2022-11-02T22:00:44.271Z,96961.31
2022-11-02T22:03:13.012Z,96964.19
2022-11-02T22:05:59.517Z,96968.25
2022-11-02T22:08:39.454Z,96959.06
2022-11-02T22:11:08.301Z,96970.72
2022-11-02T22:13:36.521Z,96947.34
2022-11-02T22:16:16.788Z,96971.94
2022-11-02T22:18:47.056Z,96959.44
2022-11-02T22:21:16.013Z,96967.44
2022-11-02T22:23:45.478Z,96958.41
2022-11-02T22:26:15.463Z,96950.03
2022-11-02T22:28:44.808Z,96957.63
2022-11-02T22:31:15.442Z,96953.53
2022-11-02T22:33:45.284Z,96948.22
2022-11-02T22:36:15.360Z,96943.72
2022-11-02T22:38:48.673Z,96937.94
2022-11-02T22:41:16.985Z,96903.94
2022-11-02T22:43:44.846Z,96940.81
2022-11-02T22:46:12.696Z,96937.09
2022-11-02T22:48:40.446Z,96947.34
2022-11-02T22:51:10.124Z,96927.50
2022-11-02T22:53:37.866Z,96930.38
2022-11-02T22:56:08.754Z,96943.03
2022-11-02T22:58:37.601Z,96951.84
2022-11-02T23:01:06.380Z,96923.16
2022-11-02T23:03:35.648Z,96941.00
2022-11-02T23:06:06.339Z,96940.38
2022-11-02T23:08:36.976Z,96941.41
2022-11-02T23:11:23.648Z,96942.84
2022-11-02T23:13:55.474Z,96943.25
2022-11-02T23:16:25.387Z,96946.13
2022-11-02T23:19:18.730Z,96926.03
2022-11-02T23:21:50.190Z,96937.13
2022-11-02T23:24:36.639Z,96931.34
2022-11-02T23:27:05.340Z,96940.59
2022-11-02T23:29:50.396Z,96934.44
2022-11-02T23:32:28.899Z,96938.09
2022-11-02T23:35:15.568Z,96940.78
2022-11-02T23:37:44.234Z,96923.78
2022-11-02T23:40:15.367Z,96929.13
2022-11-02T23:42:43.364Z,96935.84
2022-11-02T23:45:11.791Z,96916.19
2022-11-02T23:47:58.080Z,96923.56
2022-11-02T23:50:46.578Z,96929.91
2022-11-02T23:53:33.857Z,96920.28
2022-11-02T23:56:20.562Z,96916.22
2022-11-02T23:58:48.503Z,96911.09
